createdAt,value
2018-09-10T00:01:04.778Z,88.20
2018-09-10T00:03:33.490Z,88.70
2018-09-10T00:06:02.266Z,89.00
2018-09-10T00:08:30.983Z,88.80
2018-09-10T00:10:59.746Z,89.10
2018-09-10T00:13:28.470Z,88.90
2018-09-10T00:15:59.081Z,88.60
2018-09-10T00:18:27.936Z,88.50
2018-09-10T00:20:56.651Z,88.80
2018-09-10T00:23:25.279Z,89.20
2018-09-10T00:25:53.939Z,89.70
2018-09-10T00:28:22.571Z,90.00
2018-09-10T00:30:51.303Z,90.00
2018-09-10T00:33:21.784Z,90.00
2018-09-10T00:35:50.963Z,89.60
2018-09-10T00:38:19.770Z,89.70
2018-09-10T00:40:48.478Z,89.40
2018-09-10T00:43:17.208Z,89.20
2018-09-10T00:45:45.924Z,89.00
2018-09-10T00:48:14.654Z,89.40
2018-09-10T00:50:43.295Z,89.30
2018-09-10T00:53:11.940Z,89.10
2018-09-10T00:55:40.543Z,89.30
2018-09-10T00:58:09.171Z,89.40
2018-09-10T01:00:37.783Z,89.40
2018-09-10T01:03:06.416Z,89.80
2018-09-10T01:05:35.079Z,89.90
2018-09-10T01:08:03.833Z,90.10
2018-09-10T01:10:32.523Z,90.00
2018-09-10T01:13:01.208Z,90.10
2018-09-10T01:15:29.946Z,90.00
2018-09-10T01:17:58.634Z,90.20
2018-09-10T01:20:27.306Z,90.30
2018-09-10T01:22:55.948Z,90.30
2018-09-10T01:25:24.598Z,90.20
2018-09-10T01:27:53.238Z,89.60
2018-09-10T01:30:21.925Z,89.50
2018-09-10T01:32:50.553Z,89.50
2018-09-10T01:35:19.236Z,89.60
2018-09-10T01:37:47.858Z,90.10
2018-09-10T01:40:16.559Z,89.60
2018-09-10T01:42:45.341Z,89.70
2018-09-10T01:45:14.103Z,90.30
2018-09-10T01:47:42.879Z,91.00
2018-09-10T01:50:11.559Z,90.70
2018-09-10T01:52:40.170Z,90.80
2018-09-10T01:55:08.763Z,90.50
2018-09-10T01:57:37.416Z,90.40
2018-09-10T02:00:06.203Z,90.50
2018-09-10T02:02:34.896Z,90.40
2018-09-10T02:05:03.719Z,90.00
2018-09-10T02:07:32.476Z,89.70
2018-09-10T02:10:01.154Z,89.90
2018-09-10T02:12:29.805Z,90.20
2018-09-10T02:14:58.453Z,90.00
2018-09-10T02:17:27.134Z,89.50
2018-09-10T02:19:55.747Z,89.90
2018-09-10T02:22:24.424Z,90.30
2018-09-10T02:24:53.216Z,90.00
2018-09-10T02:27:21.967Z,90.30
2018-09-10T02:29:50.728Z,90.60
2018-09-10T02:32:19.567Z,90.30
2018-09-10T02:34:48.344Z,90.20
2018-09-10T02:37:17.119Z,90.50
2018-09-10T02:39:45.836Z,90.50
2018-09-10T02:42:14.573Z,90.30
2018-09-10T02:44:43.232Z,90.50
2018-09-10T02:47:11.871Z,90.30
2018-09-10T02:49:40.481Z,90.70
2018-09-10T02:52:09.102Z,90.60
2018-09-10T02:54:37.799Z,91.00
2018-09-10T02:57:06.891Z,91.00
2018-09-10T02:59:35.618Z,90.80
2018-09-10T03:02:04.388Z,90.60
2018-09-10T03:04:33.094Z,90.90
2018-09-10T03:07:01.836Z,91.00
2018-09-10T03:09:30.546Z,91.20
2018-09-10T03:11:59.299Z,91.10
2018-09-10T03:14:28.037Z,91.70
2018-09-10T03:16:56.756Z,92.10
2018-09-10T03:19:25.466Z,92.10
2018-09-10T03:21:54.176Z,92.10
2018-09-10T03:24:22.969Z,93.80
2018-09-10T03:26:51.686Z,93.30
2018-09-10T03:29:20.385Z,91.60
2018-09-10T03:31:49.151Z,90.80
2018-09-10T03:34:17.938Z,90.80
2018-09-10T03:36:46.705Z,90.50
2018-09-10T03:39:15.468Z,90.80
2018-09-10T03:41:44.226Z,91.20
2018-09-10T03:44:12.949Z,91.10
2018-09-10T03:46:41.679Z,91.60
2018-09-10T03:49:10.404Z,92.20
2018-09-10T03:51:39.205Z,92.20
2018-09-10T03:54:08.118Z,92.60
2018-09-10T03:56:36.813Z,92.70
2018-09-10T03:59:05.433Z,92.80
2018-09-10T04:01:34.013Z,93.10
2018-09-10T04:04:02.656Z,93.70
2018-09-10T04:06:31.345Z,92.90
2018-09-10T04:09:00.003Z,92.80
2018-09-10T04:11:28.645Z,93.00
2018-09-10T04:13:57.278Z,92.90
2018-09-10T04:16:25.898Z,92.70
2018-09-10T04:18:54.582Z,92.70
2018-09-10T04:21:23.251Z,92.80
2018-09-10T04:23:51.897Z,93.00
2018-09-10T04:26:20.509Z,92.50
2018-09-10T04:28:49.158Z,92.40
2018-09-10T04:31:17.815Z,92.20
2018-09-10T04:33:46.478Z,92.00
2018-09-10T04:36:15.227Z,91.50
2018-09-10T04:38:43.831Z,91.40
2018-09-10T04:41:12.483Z,91.40
2018-09-10T04:43:41.104Z,91.30
2018-09-10T04:46:09.733Z,91.70
2018-09-10T04:48:38.490Z,91.50
2018-09-10T04:51:07.279Z,91.50
2018-09-10T04:53:35.917Z,91.80
2018-09-10T04:56:04.625Z,91.80
2018-09-10T04:58:33.272Z,91.90
2018-09-10T05:01:02.026Z,92.30
2018-09-10T05:03:30.999Z,92.70
2018-09-10T05:05:59.611Z,92.40
2018-09-10T05:08:28.250Z,92.30
2018-09-10T05:10:56.953Z,92.10
2018-09-10T05:13:25.668Z,91.80
2018-09-10T05:15:54.671Z,92.00
2018-09-10T05:18:24.269Z,91.80
2018-09-10T05:20:53.044Z,92.20
2018-09-10T05:23:21.719Z,92.10
2018-09-10T05:25:50.356Z,92.80
2018-09-10T05:28:19.064Z,92.10
2018-09-10T05:30:47.703Z,92.70
2018-09-10T05:33:16.336Z,92.50
2018-09-10T05:35:44.923Z,92.10
2018-09-10T05:38:13.589Z,91.90
2018-09-10T05:40:42.256Z,91.70
2018-09-10T05:43:10.904Z,91.20
2018-09-10T05:45:39.629Z,90.30
2018-09-10T05:48:08.273Z,89.90
2018-09-10T05:50:36.929Z,89.10
2018-09-10T05:53:05.561Z,87.60
2018-09-10T05:55:34.358Z,85.50
2018-09-10T05:58:03.039Z,84.70
2018-09-10T06:00:31.764Z,83.60
2018-09-10T06:03:00.446Z,83.80
2018-09-10T06:05:29.093Z,81.10
2018-09-10T06:07:57.766Z,81.10
2018-09-10T06:10:26.523Z,82.00
2018-09-10T06:12:55.210Z,80.80
2018-09-10T06:15:24.031Z,81.50
2018-09-10T06:17:52.821Z,80.30
2018-09-10T06:20:21.604Z,81.80
2018-09-10T06:22:50.444Z,81.30
2018-09-10T06:25:19.207Z,80.00
2018-09-10T06:27:48.039Z,78.70
2018-09-10T06:30:16.842Z,77.90
2018-09-10T06:32:45.637Z,75.50
2018-09-10T06:35:14.376Z,75.10
2018-09-10T06:37:43.204Z,73.90
2018-09-10T06:40:11.994Z,73.70
2018-09-10T06:42:40.806Z,73.00
2018-09-10T06:45:09.579Z,72.70
2018-09-10T06:47:38.384Z,72.90
2018-09-10T06:50:07.206Z,71.50
2018-09-10T06:52:35.955Z,70.50
2018-09-10T06:55:05.299Z,71.40
2018-09-10T06:57:34.119Z,70.70
2018-09-10T07:00:03.068Z,70.90
2018-09-10T07:02:31.846Z,69.60
2018-09-10T07:05:00.662Z,69.50
2018-09-10T07:07:29.504Z,68.60
2018-09-10T07:09:58.426Z,68.30
2018-09-10T07:12:27.123Z,68.00
2018-09-10T07:14:55.831Z,67.20
2018-09-10T07:17:25.364Z,67.60
2018-09-10T07:19:54.072Z,65.70
2018-09-10T07:22:22.721Z,65.10
2018-09-10T07:24:51.377Z,64.40
2018-09-10T07:27:20.086Z,64.40
2018-09-10T07:29:48.696Z,62.50
2018-09-10T07:32:17.381Z,62.00
2018-09-10T07:34:46.157Z,61.30
2018-09-10T07:37:21.243Z,60.30
2018-09-10T07:39:50.392Z,60.20
2018-09-10T07:42:19.071Z,60.10
2018-09-10T07:44:47.757Z,59.20
2018-09-10T07:47:16.391Z,58.60
2018-09-10T07:49:45.154Z,58.60
2018-09-10T07:52:13.903Z,59.30
2018-09-10T07:54:42.641Z,57.30
2018-09-10T07:57:11.318Z,55.20
2018-09-10T07:59:39.926Z,53.90
2018-09-10T08:02:08.546Z,53.10
2018-09-10T08:04:37.134Z,53.00
2018-09-10T08:07:05.802Z,52.40
2018-09-10T08:09:34.408Z,50.60
2018-09-10T08:12:03.161Z,50.50
2018-09-10T08:14:31.811Z,51.70
2018-09-10T08:17:00.428Z,51.40
2018-09-10T08:19:29.101Z,50.90
2018-09-10T08:21:57.731Z,49.50
2018-09-10T08:24:26.529Z,49.30
2018-09-10T08:26:55.107Z,49.20
2018-09-10T08:29:23.970Z,47.70
2018-09-10T08:31:52.698Z,45.50
2018-09-10T08:34:22.383Z,45.50
2018-09-10T08:36:51.099Z,44.10
2018-09-10T08:39:20.188Z,44.70
2018-09-10T08:41:48.949Z,43.50
2018-09-10T08:44:17.876Z,43.90
2018-09-10T08:46:46.598Z,43.00
2018-09-10T08:49:15.267Z,43.90
2018-09-10T08:51:43.906Z,43.20
2018-09-10T08:54:12.634Z,41.50
2018-09-10T08:56:41.387Z,44.00
2018-09-10T08:59:10.141Z,41.80
2018-09-10T09:01:39.004Z,42.30
2018-09-10T09:04:07.818Z,39.80
2018-09-10T09:06:36.570Z,39.20
2018-09-10T09:09:10.866Z,39.00
2018-09-10T09:11:40.296Z,39.20
2018-09-10T09:14:09.111Z,39.20
2018-09-10T09:16:37.814Z,39.70
2018-09-10T09:19:06.646Z,37.20
2018-09-10T09:21:35.441Z,37.20
2018-09-10T09:24:04.331Z,35.70
2018-09-10T09:26:33.084Z,36.60
2018-09-10T09:29:01.768Z,35.90
2018-09-10T09:31:30.398Z,35.40
2018-09-10T09:33:59.085Z,34.70
2018-09-10T09:36:33.468Z,34.60
2018-09-10T09:39:07.705Z,34.10
2018-09-10T09:41:41.751Z,35.30
2018-09-10T09:44:16.028Z,32.60
2018-09-10T09:46:44.735Z,30.00
2018-09-10T09:49:13.583Z,30.70
2018-09-10T09:51:42.673Z,31.20
2018-09-10T09:54:11.396Z,30.90
2018-09-10T09:56:40.249Z,30.50
2018-09-10T09:59:08.936Z,30.20
2018-09-10T10:01:44.988Z,29.60
2018-09-10T10:04:14.197Z,29.70
2018-09-10T10:06:42.833Z,28.30
2018-09-10T10:09:12.333Z,30.00
2018-09-10T10:11:41.221Z,28.60
2018-09-10T10:14:10.778Z,28.30
2018-09-10T10:16:39.586Z,28.90
2018-09-10T10:19:08.400Z,29.30
2018-09-10T10:21:37.069Z,29.20
2018-09-10T10:24:05.861Z,29.70
2018-09-10T10:26:34.586Z,30.00
2018-09-10T10:29:03.196Z,30.00
2018-09-10T10:31:31.824Z,29.90
2018-09-10T10:34:00.486Z,30.00
2018-09-10T10:36:29.133Z,29.70
2018-09-10T10:38:57.775Z,28.80
2018-09-10T10:41:27.374Z,28.40
2018-09-10T10:43:56.048Z,29.30
2018-09-10T10:46:24.809Z,27.90
2018-09-10T10:48:53.498Z,27.60
2018-09-10T10:51:22.318Z,28.40
2018-09-10T10:53:51.068Z,28.70
2018-09-10T10:56:19.666Z,28.60
2018-09-10T10:58:48.311Z,28.60
2018-09-10T11:01:17.105Z,28.20
2018-09-10T11:03:45.774Z,28.20
2018-09-10T11:06:14.436Z,28.10
2018-09-10T11:08:43.101Z,26.90
2018-09-10T11:11:11.826Z,26.80
2018-09-10T11:13:40.646Z,26.60
2018-09-10T11:16:09.451Z,26.80
2018-09-10T11:18:38.271Z,26.10
2018-09-10T11:21:07.093Z,24.80
2018-09-10T11:23:35.726Z,25.30
2018-09-10T11:26:04.500Z,24.40
2018-09-10T11:28:33.298Z,23.90
2018-09-10T11:31:01.945Z,23.60
2018-09-10T11:33:30.712Z,22.90
2018-09-10T11:35:59.362Z,23.20
2018-09-10T11:38:28.031Z,23.90
2018-09-10T11:40:56.800Z,24.50
2018-09-10T11:43:25.731Z,24.10
2018-09-10T11:45:54.495Z,24.90
2018-09-10T11:48:23.273Z,25.30
2018-09-10T11:50:52.056Z,24.20
2018-09-10T11:53:20.723Z,23.60
2018-09-10T11:55:49.489Z,24.50
2018-09-10T11:58:18.165Z,24.50
2018-09-10T12:00:46.830Z,24.70
2018-09-10T12:03:15.596Z,23.70
2018-09-10T12:05:44.359Z,23.00
2018-09-10T12:08:13.213Z,22.80
2018-09-10T12:10:42.028Z,22.60
2018-09-10T12:13:10.710Z,22.80
2018-09-10T12:15:39.535Z,22.60
2018-09-10T12:18:08.370Z,21.20
2018-09-10T12:20:37.018Z,20.90
2018-09-10T12:23:06.173Z,19.90
2018-09-10T12:25:34.948Z,17.50
2018-09-10T12:28:03.720Z,18.30
2018-09-10T12:30:32.525Z,17.80
2018-09-10T12:33:01.238Z,17.80
2018-09-10T12:35:30.785Z,19.00
2018-09-10T12:37:59.395Z,18.40
2018-09-10T12:40:28.098Z,14.70
2018-09-10T12:42:56.798Z,16.70
2018-09-10T12:45:25.500Z,18.10
2018-09-10T12:47:54.725Z,18.10
2018-09-10T12:50:23.593Z,18.30
2018-09-10T12:52:52.384Z,19.30
2018-09-10T12:55:21.182Z,17.80
2018-09-10T12:57:49.932Z,18.50
2018-09-10T13:00:18.867Z,18.70
2018-09-10T13:02:47.814Z,18.90
2018-09-10T13:05:16.768Z,19.40
2018-09-10T13:07:45.655Z,19.40
2018-09-10T13:10:14.370Z,19.10
2018-09-10T13:12:43.166Z,19.00
2018-09-10T13:15:11.827Z,19.60
2018-09-10T13:17:40.573Z,19.10
2018-09-10T13:20:09.288Z,19.50
2018-09-10T13:22:38.012Z,19.00
2018-09-10T13:25:06.833Z,19.10
2018-09-10T13:27:35.646Z,19.20
2018-09-10T13:30:04.549Z,19.20
2018-09-10T13:32:33.308Z,19.00
2018-09-10T13:35:02.733Z,18.40
2018-09-10T13:37:31.409Z,19.60
2018-09-10T13:40:00.274Z,18.30
2018-09-10T13:42:29.066Z,18.80
2018-09-10T13:44:57.798Z,18.30
2018-09-10T13:47:26.598Z,18.10
2018-09-10T13:49:56.165Z,19.10
2018-09-10T13:52:26.483Z,17.70
2018-09-10T13:54:55.235Z,18.90
2018-09-10T13:57:24.050Z,20.70
2018-09-10T13:59:53.752Z,19.80
2018-09-10T14:02:22.427Z,20.70
2018-09-10T14:04:51.041Z,18.30
2018-09-10T14:07:19.798Z,19.90
2018-09-10T14:09:48.691Z,18.60
2018-09-10T14:12:17.427Z,17.40
2018-09-10T14:14:46.110Z,16.20
2018-09-10T14:17:14.713Z,15.80
2018-09-10T14:19:43.881Z,15.40
2018-09-10T14:22:12.711Z,13.40
2018-09-10T14:24:41.456Z,15.00
2018-09-10T14:27:10.271Z,14.80
2018-09-10T14:29:39.046Z,13.00
2018-09-10T14:32:07.797Z,14.20
2018-09-10T14:34:37.452Z,13.90
2018-09-10T14:37:06.374Z,14.60
2018-09-10T14:39:35.514Z,14.50
2018-09-10T14:42:04.704Z,14.00
2018-09-10T14:44:34.046Z,15.30
2018-09-10T14:47:02.824Z,14.80
2018-09-10T14:49:31.625Z,15.60
2018-09-10T14:52:00.436Z,15.60
2018-09-10T14:54:29.644Z,15.30
2018-09-10T14:56:58.878Z,15.70
2018-09-10T14:59:28.571Z,16.40
2018-09-10T15:01:57.208Z,15.80
2018-09-10T15:04:25.929Z,15.90
2018-09-10T15:06:55.251Z,17.10
2018-09-10T15:09:23.937Z,17.60
2018-09-10T15:11:52.688Z,19.10
2018-09-10T15:14:21.463Z,19.30
2018-09-10T15:16:50.244Z,19.40
2018-09-10T15:19:19.049Z,19.60
2018-09-10T15:21:47.780Z,20.20
2018-09-10T15:24:16.504Z,20.40
2018-09-10T15:26:45.228Z,20.20
2018-09-10T15:29:13.876Z,21.40
2018-09-10T15:31:42.466Z,22.40
2018-09-10T15:34:11.254Z,22.40
2018-09-10T15:36:40.007Z,23.30
2018-09-10T15:39:09.222Z,23.30
2018-09-10T15:41:37.980Z,24.40
2018-09-10T15:44:06.813Z,25.20
2018-09-10T15:46:35.640Z,26.40
2018-09-10T15:49:04.564Z,26.50
2018-09-10T15:51:33.285Z,26.50
2018-09-10T15:54:01.951Z,25.50
2018-09-10T15:56:30.598Z,25.40
2018-09-10T15:58:59.359Z,26.10
2018-09-10T16:01:27.988Z,26.20
2018-09-10T16:03:56.765Z,25.70
2018-09-10T16:06:25.464Z,25.90
2018-09-10T16:08:54.212Z,25.90
2018-09-10T16:11:22.942Z,26.60
2018-09-10T16:13:51.707Z,27.40
2018-09-10T16:16:20.506Z,27.20
2018-09-10T16:18:49.319Z,27.90
2018-09-10T16:21:18.048Z,28.40
2018-09-10T16:23:46.750Z,29.20
2018-09-10T16:26:15.461Z,29.80
2018-09-10T16:28:44.249Z,29.90
2018-09-10T16:31:13.027Z,30.50
2018-09-10T16:33:41.679Z,30.80
2018-09-10T16:36:10.272Z,30.30
2018-09-10T16:38:38.962Z,30.60
2018-09-10T16:41:07.728Z,30.30
2018-09-10T16:43:36.312Z,30.30
2018-09-10T16:46:05.079Z,30.60
2018-09-10T16:48:33.899Z,31.20
2018-09-10T16:51:02.552Z,32.00
2018-09-10T16:53:31.237Z,31.30
2018-09-10T16:55:59.898Z,30.70
2018-09-10T16:58:28.544Z,30.90
2018-09-10T17:00:57.177Z,31.00
2018-09-10T17:03:25.793Z,31.80
2018-09-10T17:05:55.809Z,31.40
2018-09-10T17:08:24.480Z,33.10
2018-09-10T17:10:53.179Z,34.50
2018-09-10T17:13:21.877Z,35.40
2018-09-10T17:15:50.578Z,36.40
2018-09-10T17:18:19.994Z,36.10
2018-09-10T17:20:48.714Z,36.60
2018-09-10T17:23:17.479Z,35.70
2018-09-10T17:25:51.231Z,35.00
2018-09-10T17:28:20.529Z,34.30
2018-09-10T17:30:49.481Z,33.80
2018-09-10T17:33:18.336Z,33.30
2018-09-10T17:35:47.221Z,37.80
2018-09-10T17:38:16.226Z,35.30
2018-09-10T17:40:45.055Z,38.80
2018-09-10T17:43:14.826Z,40.40
2018-09-10T17:45:43.603Z,39.80
2018-09-10T17:48:12.362Z,41.40
2018-09-10T17:50:41.288Z,41.70
2018-09-10T17:53:10.041Z,42.80
2018-09-10T17:55:38.846Z,45.10
2018-09-10T17:58:07.611Z,46.50
2018-09-10T18:00:39.693Z,48.20
2018-09-10T18:03:10.286Z,48.40
2018-09-10T18:05:39.111Z,48.00
2018-09-10T18:08:07.819Z,49.40
2018-09-10T18:10:37.758Z,49.20
2018-09-10T18:13:06.788Z,50.00
2018-09-10T18:15:35.536Z,50.70
2018-09-10T18:18:04.463Z,50.80
2018-09-10T18:20:33.654Z,52.10
2018-09-10T18:23:02.409Z,52.20
2018-09-10T18:25:31.226Z,51.80
2018-09-10T18:27:59.946Z,52.50
2018-09-10T18:30:28.711Z,54.30
2018-09-10T18:32:57.410Z,55.60
2018-09-10T18:35:27.383Z,55.60
2018-09-10T18:37:55.981Z,56.60
2018-09-10T18:40:24.699Z,56.00
2018-09-10T18:42:53.307Z,56.10
2018-09-10T18:45:21.946Z,56.10
2018-09-10T18:47:50.645Z,55.60
2018-09-10T18:50:19.449Z,54.30
2018-09-10T18:52:48.787Z,55.20
2018-09-10T18:55:17.674Z,55.20
2018-09-10T18:57:46.692Z,56.80
2018-09-10T19:00:15.639Z,55.60
2018-09-10T19:02:44.768Z,56.20
2018-09-10T19:05:13.616Z,56.50
2018-09-10T19:07:42.465Z,58.60
2018-09-10T19:10:11.194Z,58.50
2018-09-10T19:12:39.981Z,59.10
2018-09-10T19:15:08.687Z,57.00
2018-09-10T19:17:37.855Z,56.20
2018-09-10T19:20:07.524Z,55.80
2018-09-10T19:22:36.306Z,55.90
2018-09-10T19:25:05.704Z,57.00
2018-09-10T19:27:35.193Z,55.50
2018-09-10T19:30:04.688Z,55.20
2018-09-10T19:32:33.683Z,55.80
2018-09-10T19:35:03.835Z,57.20
2018-09-10T19:37:33.581Z,57.40
2018-09-10T19:43:00.196Z,56.10
2018-09-10T19:45:29.465Z,56.70
2018-09-10T19:47:59.553Z,56.60
2018-09-10T19:50:29.064Z,56.60
2018-09-10T19:52:58.329Z,57.30
2018-09-10T19:55:27.547Z,57.40
2018-09-10T19:57:56.787Z,56.90
2018-09-10T20:00:26.941Z,57.50
2018-09-10T20:02:56.809Z,56.10
2018-09-10T20:05:26.168Z,56.30
2018-09-10T20:07:56.507Z,56.50
2018-09-10T20:10:25.869Z,57.10
2018-09-10T20:12:55.101Z,57.30
2018-09-10T20:15:24.337Z,58.40
2018-09-10T20:17:53.703Z,59.30
2018-09-10T20:20:22.947Z,61.10
2018-09-10T20:22:52.729Z,61.90
2018-09-10T20:25:23.291Z,62.00
2018-09-10T20:27:52.599Z,62.20
2018-09-10T20:30:23.859Z,62.90
2018-09-10T20:32:53.133Z,63.60
2018-09-10T20:35:23.001Z,64.70
2018-09-10T20:37:52.247Z,65.80
2018-09-10T20:40:21.546Z,67.00
2018-09-10T20:42:52.365Z,67.40
2018-09-10T20:45:21.793Z,67.80
2018-09-10T20:47:51.144Z,67.40
2018-09-10T20:50:21.002Z,67.80
2018-09-10T20:52:50.302Z,68.80
2018-09-10T20:55:20.077Z,68.60
2018-09-10T20:57:49.613Z,69.80
2018-09-10T21:00:18.799Z,70.00
2018-09-10T21:02:48.036Z,70.60
2018-09-10T21:05:17.251Z,70.40
2018-09-10T21:07:46.444Z,69.30
2018-09-10T21:10:15.728Z,70.00
2018-09-10T21:12:45.066Z,69.70
2018-09-10T21:15:14.515Z,69.60
2018-09-10T21:17:43.993Z,69.80
2018-09-10T21:20:14.253Z,69.60
2018-09-10T21:22:43.676Z,69.40
2018-09-10T21:25:13.039Z,69.50
2018-09-10T21:27:42.435Z,70.10
2018-09-10T21:30:11.934Z,70.00
2018-09-10T21:32:41.213Z,70.20
2018-09-10T21:35:11.035Z,70.30
2018-09-10T21:37:40.258Z,70.70
2018-09-10T21:40:09.665Z,71.50
2018-09-10T21:42:39.007Z,71.90
2018-09-10T21:45:08.436Z,71.50
2018-09-10T21:47:37.734Z,70.50
2018-09-10T21:50:07.239Z,68.80
2018-09-10T21:52:36.524Z,68.10
2018-09-10T21:55:05.886Z,68.00
2018-09-10T21:57:35.258Z,67.50
2018-09-10T22:00:05.876Z,68.00
2018-09-10T22:02:35.239Z,68.50
2018-09-10T22:05:05.057Z,69.40
2018-09-10T22:07:34.533Z,70.00
2018-09-10T22:10:03.997Z,70.60
2018-09-10T22:12:33.349Z,71.70
2018-09-10T22:15:02.876Z,73.10
2018-09-10T22:17:32.201Z,73.80
2018-09-10T22:20:01.477Z,74.60
2018-09-10T22:22:30.725Z,75.00
2018-09-10T22:25:00.477Z,75.60
2018-09-10T22:27:29.677Z,75.70
2018-09-10T22:29:59.319Z,75.50
2018-09-10T22:32:28.681Z,75.40
2018-09-10T22:34:58.204Z,75.70
2018-09-10T22:37:27.564Z,75.80
2018-09-10T22:39:56.878Z,75.80
2018-09-10T22:42:26.962Z,75.90
2018-09-10T22:44:56.849Z,75.90
2018-09-10T22:47:26.149Z,76.50
2018-09-10T22:49:55.366Z,76.70
2018-09-10T22:52:24.615Z,77.00
2018-09-10T22:54:54.791Z,76.60
2018-09-10T22:57:24.122Z,75.50
2018-09-10T22:59:53.367Z,76.20
2018-09-10T23:02:22.796Z,76.30
2018-09-10T23:04:52.214Z,77.10
2018-09-10T23:07:21.469Z,77.20
2018-09-10T23:09:50.646Z,77.40
2018-09-10T23:12:20.467Z,77.50
2018-09-10T23:14:49.746Z,77.50
2018-09-10T23:17:19.157Z,77.90
2018-09-10T23:19:48.714Z,78.10
2018-09-10T23:22:17.973Z,78.80
2018-09-10T23:24:47.243Z,78.90
2018-09-10T23:27:16.839Z,79.40
2018-09-10T23:29:46.041Z,79.50
2018-09-10T23:32:15.146Z,79.40
2018-09-10T23:34:44.241Z,80.00
2018-09-10T23:37:13.470Z,80.00
2018-09-10T23:39:42.801Z,80.60
2018-09-10T23:42:12.163Z,80.80
2018-09-10T23:44:41.556Z,80.60
2018-09-10T23:47:10.865Z,80.80
2018-09-10T23:49:41.095Z,81.20
2018-09-10T23:52:10.255Z,81.60
2018-09-10T23:54:39.383Z,81.90
2018-09-10T23:57:08.484Z,81.80
2018-09-10T23:59:37.583Z,82.20
